sensor_id;sensor_type;location;lat;lon;timestamp;P1;durP1;ratioP1;P2;durP2;ratioP2
66089;SDS011;53113;45.602;11.904;2022-12-18T00:01:52;9.70;;;6.00;;
66089;SDS011;53113;45.602;11.904;2022-12-18T00:04:24;9.80;;;6.40;;
66089;SDS011;53113;45.602;11.904;2022-12-18T00:06:52;9.30;;;5.70;;
66089;SDS011;53113;45.602;11.904;2022-12-18T00:09:18;10.20;;;6.00;;
66089;SDS011;53113;45.602;11.904;2022-12-18T00:11:45;10.20;;;6.10;;
66089;SDS011;53113;45.602;11.904;2022-12-18T00:14:10;8.80;;;5.60;;
66089;SDS011;53113;45.602;11.904;2022-12-18T00:16:38;10.20;;;5.80;;
66089;SDS011;53113;45.602;11.904;2022-12-18T00:19:05;10.70;;;6.50;;
66089;SDS011;53113;45.602;11.904;2022-12-18T00:21:31;10.40;;;5.50;;
66089;SDS011;53113;45.602;11.904;2022-12-18T00:23:59;10.60;;;6.10;;
66089;SDS011;53113;45.602;11.904;2022-12-18T00:26:26;9.20;;;5.70;;
66089;SDS011;53113;45.602;11.904;2022-12-18T00:29:04;10.40;;;6.30;;
66089;SDS011;53113;45.602;11.904;2022-12-18T00:31:32;9.10;;;5.30;;
66089;SDS011;53113;45.602;11.904;2022-12-18T00:33:58;9.40;;;5.80;;
66089;SDS011;53113;45.602;11.904;2022-12-18T00:36:28;10.90;;;6.40;;
66089;SDS011;53113;45.602;11.904;2022-12-18T00:38:56;11.60;;;6.50;;
66089;SDS011;53113;45.602;11.904;2022-12-18T00:41:23;11.20;;;6.80;;
66089;SDS011;53113;45.602;11.904;2022-12-18T00:44:09;10.30;;;6.40;;
66089;SDS011;53113;45.602;11.904;2022-12-18T00:46:37;11.10;;;6.40;;
66089;SDS011;53113;45.602;11.904;2022-12-18T00:49:03;11.30;;;6.00;;
66089;SDS011;53113;45.602;11.904;2022-12-18T00:51:29;9.90;;;6.00;;
66089;SDS011;53113;45.602;11.904;2022-12-18T00:53:55;10.40;;;6.20;;
66089;SDS011;53113;45.602;11.904;2022-12-18T00:56:21;10.80;;;6.20;;
66089;SDS011;53113;45.602;11.904;2022-12-18T00:58:48;9.90;;;5.60;;
66089;SDS011;53113;45.602;11.904;2022-12-18T01:01:14;9.30;;;5.40;;
66089;SDS011;53113;45.602;11.904;2022-12-18T01:03:40;9.80;;;6.00;;
66089;SDS011;53113;45.602;11.904;2022-12-18T01:06:06;9.70;;;5.80;;
66089;SDS011;53113;45.602;11.904;2022-12-18T01:08:33;9.40;;;5.50;;
66089;SDS011;53113;45.602;11.904;2022-12-18T01:11:00;9.60;;;5.80;;
66089;SDS011;53113;45.602;11.904;2022-12-18T01:13:26;9.30;;;5.80;;
66089;SDS011;53113;45.602;11.904;2022-12-18T01:15:53;9.70;;;5.20;;
66089;SDS011;53113;45.602;11.904;2022-12-18T01:18:18;10.00;;;5.60;;
66089;SDS011;53113;45.602;11.904;2022-12-18T01:20:44;9.40;;;5.80;;
66089;SDS011;53113;45.602;11.904;2022-12-18T01:23:10;9.80;;;6.00;;
66089;SDS011;53113;45.602;11.904;2022-12-18T01:25:36;9.30;;;5.60;;
66089;SDS011;53113;45.602;11.904;2022-12-18T01:28:03;8.20;;;5.20;;
66089;SDS011;53113;45.602;11.904;2022-12-18T01:30:29;9.80;;;5.70;;
66089;SDS011;53113;45.602;11.904;2022-12-18T01:32:55;10.60;;;5.90;;
66089;SDS011;53113;45.602;11.904;2022-12-18T01:35:21;9.50;;;5.40;;
66089;SDS011;53113;45.602;11.904;2022-12-18T01:37:47;10.60;;;6.30;;
66089;SDS011;53113;45.602;11.904;2022-12-18T01:40:12;12.30;;;7.00;;
66089;SDS011;53113;45.602;11.904;2022-12-18T01:42:38;10.80;;;6.20;;
66089;SDS011;53113;45.602;11.904;2022-12-18T01:45:05;10.50;;;6.10;;
66089;SDS011;53113;45.602;11.904;2022-12-18T01:47:48;10.80;;;6.20;;
66089;SDS011;53113;45.602;11.904;2022-12-18T01:52:45;10.00;;;5.80;;
66089;SDS011;53113;45.602;11.904;2022-12-18T01:55:14;10.80;;;5.70;;
66089;SDS011;53113;45.602;11.904;2022-12-18T01:57:43;8.90;;;5.40;;
66089;SDS011;53113;45.602;11.904;2022-12-18T02:00:11;10.10;;;5.70;;
66089;SDS011;53113;45.602;11.904;2022-12-18T02:02:43;9.20;;;5.70;;
66089;SDS011;53113;45.602;11.904;2022-12-18T02:05:11;9.60;;;5.40;;
66089;SDS011;53113;45.602;11.904;2022-12-18T02:10:41;9.00;;;5.50;;
66089;SDS011;53113;45.602;11.904;2022-12-18T02:16:58;9.50;;;5.20;;
66089;SDS011;53113;45.602;11.904;2022-12-18T02:28:03;9.70;;;5.60;;
66089;SDS011;53113;45.602;11.904;2022-12-18T02:30:34;10.70;;;5.90;;
66089;SDS011;53113;45.602;11.904;2022-12-18T02:33:04;9.70;;;5.90;;
66089;SDS011;53113;45.602;11.904;2022-12-18T02:35:32;8.10;;;4.80;;
66089;SDS011;53113;45.602;11.904;2022-12-18T02:38:00;12.40;;;7.00;;
66089;SDS011;53113;45.602;11.904;2022-12-18T02:40:29;10.50;;;6.80;;
66089;SDS011;53113;45.602;11.904;2022-12-18T02:43:01;11.30;;;6.60;;
66089;SDS011;53113;45.602;11.904;2022-12-18T02:45:32;9.80;;;5.60;;
66089;SDS011;53113;45.602;11.904;2022-12-18T02:47:57;10.60;;;5.80;;
66089;SDS011;53113;45.602;11.904;2022-12-18T02:50:30;8.90;;;5.30;;
66089;SDS011;53113;45.602;11.904;2022-12-18T02:53:21;8.70;;;5.40;;
66089;SDS011;53113;45.602;11.904;2022-12-18T03:01:58;9.30;;;5.10;;
66089;SDS011;53113;45.602;11.904;2022-12-18T03:05:19;9.40;;;5.30;;
66089;SDS011;53113;45.602;11.904;2022-12-18T03:07:42;9.50;;;5.30;;
66089;SDS011;53113;45.602;11.904;2022-12-18T03:10:55;9.10;;;5.00;;
66089;SDS011;53113;45.602;11.904;2022-12-18T03:13:37;9.80;;;4.90;;
66089;SDS011;53113;45.602;11.904;2022-12-18T03:16:07;9.40;;;5.10;;
66089;SDS011;53113;45.602;11.904;2022-12-18T03:18:46;8.80;;;4.80;;
66089;SDS011;53113;45.602;11.904;2022-12-18T03:21:18;9.00;;;4.90;;
66089;SDS011;53113;45.602;11.904;2022-12-18T03:23:49;9.10;;;5.30;;
66089;SDS011;53113;45.602;11.904;2022-12-18T03:26:17;9.20;;;5.20;;
66089;SDS011;53113;45.602;11.904;2022-12-18T03:28:49;9.80;;;5.10;;
66089;SDS011;53113;45.602;11.904;2022-12-18T03:31:17;9.00;;;5.20;;
66089;SDS011;53113;45.602;11.904;2022-12-18T03:33:51;8.80;;;5.30;;
66089;SDS011;53113;45.602;11.904;2022-12-18T03:36:19;11.70;;;6.40;;
66089;SDS011;53113;45.602;11.904;2022-12-18T03:38:45;11.30;;;6.20;;
66089;SDS011;53113;45.602;11.904;2022-12-18T03:41:15;10.00;;;5.80;;
66089;SDS011;53113;45.602;11.904;2022-12-18T03:46:38;9.80;;;5.30;;
66089;SDS011;53113;45.602;11.904;2022-12-18T03:53:04;9.70;;;4.80;;
66089;SDS011;53113;45.602;11.904;2022-12-18T03:54:59;10.00;;;5.20;;
66089;SDS011;53113;45.602;11.904;2022-12-18T03:57:28;9.10;;;5.10;;
66089;SDS011;53113;45.602;11.904;2022-12-18T04:00:07;10.00;;;5.30;;
66089;SDS011;53113;45.602;11.904;2022-12-18T04:02:36;9.00;;;5.10;;
66089;SDS011;53113;45.602;11.904;2022-12-18T04:05:06;9.60;;;5.40;;
66089;SDS011;53113;45.602;11.904;2022-12-18T04:07:34;9.50;;;5.50;;
66089;SDS011;53113;45.602;11.904;2022-12-18T04:10:01;9.80;;;5.00;;
66089;SDS011;53113;45.602;11.904;2022-12-18T04:12:28;9.90;;;5.30;;
66089;SDS011;53113;45.602;11.904;2022-12-18T04:14:54;10.30;;;5.00;;
66089;SDS011;53113;45.602;11.904;2022-12-18T04:17:20;10.90;;;5.90;;
66089;SDS011;53113;45.602;11.904;2022-12-18T04:19:47;10.30;;;5.10;;
66089;SDS011;53113;45.602;11.904;2022-12-18T04:22:13;10.20;;;5.00;;
66089;SDS011;53113;45.602;11.904;2022-12-18T04:24:38;9.90;;;5.70;;
66089;SDS011;53113;45.602;11.904;2022-12-18T04:27:04;9.30;;;5.30;;
66089;SDS011;53113;45.602;11.904;2022-12-18T04:29:30;9.70;;;5.70;;
66089;SDS011;53113;45.602;11.904;2022-12-18T04:31:55;9.80;;;5.30;;
66089;SDS011;53113;45.602;11.904;2022-12-18T04:34:21;10.10;;;6.00;;
66089;SDS011;53113;45.602;11.904;2022-12-18T04:36:47;10.50;;;6.10;;
66089;SDS011;53113;45.602;11.904;2022-12-18T04:39:13;12.60;;;7.00;;
66089;SDS011;53113;45.602;11.904;2022-12-18T04:41:39;12.40;;;7.10;;
66089;SDS011;53113;45.602;11.904;2022-12-18T04:44:04;10.50;;;5.90;;
66089;SDS011;53113;45.602;11.904;2022-12-18T04:46:30;10.20;;;5.40;;
66089;SDS011;53113;45.602;11.904;2022-12-18T04:48:56;9.50;;;5.20;;
66089;SDS011;53113;45.602;11.904;2022-12-18T04:51:21;10.20;;;5.60;;
66089;SDS011;53113;45.602;11.904;2022-12-18T04:53:47;8.90;;;5.10;;
66089;SDS011;53113;45.602;11.904;2022-12-18T04:56:13;11.00;;;5.40;;
66089;SDS011;53113;45.602;11.904;2022-12-18T04:58:40;10.50;;;6.10;;
66089;SDS011;53113;45.602;11.904;2022-12-18T05:01:08;9.90;;;5.80;;
66089;SDS011;53113;45.602;11.904;2022-12-18T05:03:36;11.10;;;5.20;;
66089;SDS011;53113;45.602;11.904;2022-12-18T05:06:02;11.00;;;5.80;;
66089;SDS011;53113;45.602;11.904;2022-12-18T05:08:28;11.20;;;6.00;;
66089;SDS011;53113;45.602;11.904;2022-12-18T05:11:01;10.40;;;5.50;;
66089;SDS011;53113;45.602;11.904;2022-12-18T05:13:29;9.80;;;5.30;;
66089;SDS011;53113;45.602;11.904;2022-12-18T05:15:56;10.70;;;5.80;;
66089;SDS011;53113;45.602;11.904;2022-12-18T05:18:22;9.70;;;5.20;;
66089;SDS011;53113;45.602;11.904;2022-12-18T05:20:49;12.10;;;6.00;;
66089;SDS011;53113;45.602;11.904;2022-12-18T05:23:16;9.90;;;5.40;;
66089;SDS011;53113;45.602;11.904;2022-12-18T05:25:42;10.50;;;5.90;;
66089;SDS011;53113;45.602;11.904;2022-12-18T05:28:11;10.80;;;6.20;;
66089;SDS011;53113;45.602;11.904;2022-12-18T05:30:37;9.70;;;5.70;;
66089;SDS011;53113;45.602;11.904;2022-12-18T05:33:03;11.00;;;6.40;;
66089;SDS011;53113;45.602;11.904;2022-12-18T05:35:28;13.60;;;8.40;;
66089;SDS011;53113;45.602;11.904;2022-12-18T05:37:54;12.20;;;7.30;;
66089;SDS011;53113;45.602;11.904;2022-12-18T05:40:20;13.30;;;7.40;;
66089;SDS011;53113;45.602;11.904;2022-12-18T05:42:46;10.70;;;5.90;;
66089;SDS011;53113;45.602;11.904;2022-12-18T05:45:12;10.30;;;6.60;;
66089;SDS011;53113;45.602;11.904;2022-12-18T05:47:38;12.20;;;6.90;;
66089;SDS011;53113;45.602;11.904;2022-12-18T05:50:04;10.30;;;5.70;;
66089;SDS011;53113;45.602;11.904;2022-12-18T05:52:30;11.60;;;6.90;;
66089;SDS011;53113;45.602;11.904;2022-12-18T05:54:56;11.70;;;6.40;;
66089;SDS011;53113;45.602;11.904;2022-12-18T05:57:21;12.20;;;6.40;;
66089;SDS011;53113;45.602;11.904;2022-12-18T05:59:47;10.50;;;6.00;;
66089;SDS011;53113;45.602;11.904;2022-12-18T06:02:13;10.90;;;6.30;;
66089;SDS011;53113;45.602;11.904;2022-12-18T06:04:39;12.00;;;6.60;;
66089;SDS011;53113;45.602;11.904;2022-12-18T06:07:04;10.40;;;6.10;;
66089;SDS011;53113;45.602;11.904;2022-12-18T06:09:30;11.00;;;6.00;;
66089;SDS011;53113;45.602;11.904;2022-12-18T06:11:57;10.50;;;5.80;;
66089;SDS011;53113;45.602;11.904;2022-12-18T06:14:23;10.60;;;6.00;;
66089;SDS011;53113;45.602;11.904;2022-12-18T06:16:50;10.60;;;6.10;;
66089;SDS011;53113;45.602;11.904;2022-12-18T06:19:17;10.20;;;5.70;;
66089;SDS011;53113;45.602;11.904;2022-12-18T06:21:43;10.60;;;6.10;;
66089;SDS011;53113;45.602;11.904;2022-12-18T06:24:09;11.30;;;5.80;;
66089;SDS011;53113;45.602;11.904;2022-12-18T06:26:36;11.20;;;6.40;;
66089;SDS011;53113;45.602;11.904;2022-12-18T06:29:05;11.50;;;6.70;;
66089;SDS011;53113;45.602;11.904;2022-12-18T06:31:31;11.10;;;6.30;;
66089;SDS011;53113;45.602;11.904;2022-12-18T06:33:57;11.60;;;6.70;;
66089;SDS011;53113;45.602;11.904;2022-12-18T06:36:23;13.10;;;7.30;;
66089;SDS011;53113;45.602;11.904;2022-12-18T06:38:48;11.60;;;6.80;;
66089;SDS011;53113;45.602;11.904;2022-12-18T06:41:15;13.70;;;7.00;;
66089;SDS011;53113;45.602;11.904;2022-12-18T06:43:44;11.60;;;6.40;;
66089;SDS011;53113;45.602;11.904;2022-12-18T06:46:10;10.50;;;6.20;;
66089;SDS011;53113;45.602;11.904;2022-12-18T06:48:37;11.50;;;6.50;;
66089;SDS011;53113;45.602;11.904;2022-12-18T06:51:03;10.50;;;6.30;;
66089;SDS011;53113;45.602;11.904;2022-12-18T06:53:29;11.40;;;6.60;;
66089;SDS011;53113;45.602;11.904;2022-12-18T06:56:03;9.90;;;6.00;;
66089;SDS011;53113;45.602;11.904;2022-12-18T06:58:30;11.30;;;6.30;;
66089;SDS011;53113;45.602;11.904;2022-12-18T07:01:00;10.70;;;6.50;;
66089;SDS011;53113;45.602;11.904;2022-12-18T07:03:29;11.20;;;6.40;;
66089;SDS011;53113;45.602;11.904;2022-12-18T07:05:55;10.80;;;6.20;;
66089;SDS011;53113;45.602;11.904;2022-12-18T07:08:21;13.00;;;7.60;;
66089;SDS011;53113;45.602;11.904;2022-12-18T07:10:47;12.50;;;7.40;;
66089;SDS011;53113;45.602;11.904;2022-12-18T07:13:15;12.40;;;7.30;;
66089;SDS011;53113;45.602;11.904;2022-12-18T07:15:42;11.80;;;6.80;;
66089;SDS011;53113;45.602;11.904;2022-12-18T07:18:08;13.10;;;7.70;;
66089;SDS011;53113;45.602;11.904;2022-12-18T07:20:34;14.10;;;8.00;;
66089;SDS011;53113;45.602;11.904;2022-12-18T07:23:01;14.50;;;8.00;;
66089;SDS011;53113;45.602;11.904;2022-12-18T07:25:28;15.20;;;9.10;;
66089;SDS011;53113;45.602;11.904;2022-12-18T07:27:54;15.10;;;8.80;;
66089;SDS011;53113;45.602;11.904;2022-12-18T07:30:20;13.50;;;7.80;;
66089;SDS011;53113;45.602;11.904;2022-12-18T07:32:46;12.00;;;7.70;;
66089;SDS011;53113;45.602;11.904;2022-12-18T07:35:12;12.30;;;7.70;;
66089;SDS011;53113;45.602;11.904;2022-12-18T07:37:38;12.10;;;7.20;;
66089;SDS011;53113;45.602;11.904;2022-12-18T07:40:04;11.30;;;6.60;;
66089;SDS011;53113;45.602;11.904;2022-12-18T07:42:31;15.50;;;8.30;;
66089;SDS011;53113;45.602;11.904;2022-12-18T07:44:57;13.30;;;7.10;;
66089;SDS011;53113;45.602;11.904;2022-12-18T07:47:24;12.10;;;7.60;;
66089;SDS011;53113;45.602;11.904;2022-12-18T07:49:50;12.90;;;7.70;;
66089;SDS011;53113;45.602;11.904;2022-12-18T07:52:16;11.50;;;7.00;;
66089;SDS011;53113;45.602;11.904;2022-12-18T07:54:42;11.70;;;6.50;;
66089;SDS011;53113;45.602;11.904;2022-12-18T07:57:11;12.10;;;7.50;;
66089;SDS011;53113;45.602;11.904;2022-12-18T07:59:36;9.90;;;6.80;;
66089;SDS011;53113;45.602;11.904;2022-12-18T08:02:02;12.30;;;7.80;;
66089;SDS011;53113;45.602;11.904;2022-12-18T08:04:28;11.90;;;7.30;;
66089;SDS011;53113;45.602;11.904;2022-12-18T08:06:54;12.00;;;7.00;;
66089;SDS011;53113;45.602;11.904;2022-12-18T08:09:20;11.40;;;7.00;;
66089;SDS011;53113;45.602;11.904;2022-12-18T08:11:45;14.30;;;8.00;;
66089;SDS011;53113;45.602;11.904;2022-12-18T08:14:12;13.70;;;8.20;;
66089;SDS011;53113;45.602;11.904;2022-12-18T08:16:40;15.20;;;8.60;;
66089;SDS011;53113;45.602;11.904;2022-12-18T08:19:05;12.70;;;7.60;;
66089;SDS011;53113;45.602;11.904;2022-12-18T08:21:31;13.00;;;8.10;;
66089;SDS011;53113;45.602;11.904;2022-12-18T08:23:58;13.80;;;8.00;;
66089;SDS011;53113;45.602;11.904;2022-12-18T08:26:26;13.00;;;7.70;;
66089;SDS011;53113;45.602;11.904;2022-12-18T08:28:54;13.10;;;7.80;;
66089;SDS011;53113;45.602;11.904;2022-12-18T08:31:21;13.30;;;7.60;;
66089;SDS011;53113;45.602;11.904;2022-12-18T08:33:48;12.80;;;7.30;;
66089;SDS011;53113;45.602;11.904;2022-12-18T08:36:16;12.30;;;7.90;;
66089;SDS011;53113;45.602;11.904;2022-12-18T08:38:42;12.10;;;7.10;;
66089;SDS011;53113;45.602;11.904;2022-12-18T08:41:12;13.50;;;7.50;;
66089;SDS011;53113;45.602;11.904;2022-12-18T08:43:40;12.50;;;7.70;;
66089;SDS011;53113;45.602;11.904;2022-12-18T08:46:25;12.10;;;7.70;;
66089;SDS011;53113;45.602;11.904;2022-12-18T08:48:52;14.00;;;8.30;;
66089;SDS011;53113;45.602;11.904;2022-12-18T08:51:21;13.30;;;7.40;;
66089;SDS011;53113;45.602;11.904;2022-12-18T08:53:47;15.10;;;8.40;;
66089;SDS011;53113;45.602;11.904;2022-12-18T08:56:13;13.30;;;8.10;;
66089;SDS011;53113;45.602;11.904;2022-12-18T08:58:40;13.80;;;7.90;;
66089;SDS011;53113;45.602;11.904;2022-12-18T09:01:07;13.90;;;7.90;;
66089;SDS011;53113;45.602;11.904;2022-12-18T09:03:35;15.80;;;9.60;;
66089;SDS011;53113;45.602;11.904;2022-12-18T09:06:01;13.50;;;8.20;;
66089;SDS011;53113;45.602;11.904;2022-12-18T09:08:28;13.10;;;7.80;;
66089;SDS011;53113;45.602;11.904;2022-12-18T09:10:55;12.50;;;7.30;;
66089;SDS011;53113;45.602;11.904;2022-12-18T09:13:21;14.20;;;8.10;;
66089;SDS011;53113;45.602;11.904;2022-12-18T09:15:48;11.00;;;6.70;;
66089;SDS011;53113;45.602;11.904;2022-12-18T09:18:19;13.80;;;7.70;;
66089;SDS011;53113;45.602;11.904;2022-12-18T09:20:46;14.20;;;8.70;;
66089;SDS011;53113;45.602;11.904;2022-12-18T09:23:13;14.50;;;8.60;;
66089;SDS011;53113;45.602;11.904;2022-12-18T09:25:39;14.20;;;9.00;;
66089;SDS011;53113;45.602;11.904;2022-12-18T09:28:06;14.20;;;9.20;;
66089;SDS011;53113;45.602;11.904;2022-12-18T09:30:41;13.50;;;9.20;;
66089;SDS011;53113;45.602;11.904;2022-12-18T09:33:09;13.10;;;8.30;;
66089;SDS011;53113;45.602;11.904;2022-12-18T09:35:41;16.20;;;10.10;;
66089;SDS011;53113;45.602;11.904;2022-12-18T09:38:10;13.90;;;8.30;;
66089;SDS011;53113;45.602;11.904;2022-12-18T09:40:51;11.50;;;7.50;;
66089;SDS011;53113;45.602;11.904;2022-12-18T09:43:33;11.30;;;7.30;;
66089;SDS011;53113;45.602;11.904;2022-12-18T09:46:07;12.20;;;7.60;;
66089;SDS011;53113;45.602;11.904;2022-12-18T09:48:41;11.30;;;7.00;;
66089;SDS011;53113;45.602;11.904;2022-12-18T09:51:13;10.70;;;6.20;;
66089;SDS011;53113;45.602;11.904;2022-12-18T09:53:46;10.60;;;7.10;;
66089;SDS011;53113;45.602;11.904;2022-12-18T09:56:18;10.40;;;6.50;;
66089;SDS011;53113;45.602;11.904;2022-12-18T09:59:01;11.10;;;7.10;;
66089;SDS011;53113;45.602;11.904;2022-12-18T10:01:28;10.00;;;7.20;;
66089;SDS011;53113;45.602;11.904;2022-12-18T10:03:55;10.10;;;6.50;;
66089;SDS011;53113;45.602;11.904;2022-12-18T10:06:42;11.80;;;6.90;;
66089;SDS011;53113;45.602;11.904;2022-12-18T10:20:05;11.90;;;8.40;;
66089;SDS011;53113;45.602;11.904;2022-12-18T10:25:43;12.30;;;8.00;;
66089;SDS011;53113;45.602;11.904;2022-12-18T10:28:13;12.50;;;8.50;;
66089;SDS011;53113;45.602;11.904;2022-12-18T10:30:41;10.70;;;7.10;;
66089;SDS011;53113;45.602;11.904;2022-12-18T10:33:14;11.00;;;7.60;;
66089;SDS011;53113;45.602;11.904;2022-12-18T10:35:43;11.10;;;8.00;;
66089;SDS011;53113;45.602;11.904;2022-12-18T10:40:52;11.40;;;7.80;;
66089;SDS011;53113;45.602;11.904;2022-12-18T10:43:28;10.80;;;7.90;;
66089;SDS011;53113;45.602;11.904;2022-12-18T10:48:34;11.40;;;7.10;;
66089;SDS011;53113;45.602;11.904;2022-12-18T10:53:59;11.80;;;7.40;;
66089;SDS011;53113;45.602;11.904;2022-12-18T10:56:39;11.10;;;6.60;;
66089;SDS011;53113;45.602;11.904;2022-12-18T10:59:07;12.50;;;7.70;;
66089;SDS011;53113;45.602;11.904;2022-12-18T11:01:55;12.00;;;8.00;;
66089;SDS011;53113;45.602;11.904;2022-12-18T11:06:53;11.50;;;7.00;;
66089;SDS011;53113;45.602;11.904;2022-12-18T11:09:24;10.70;;;7.40;;
66089;SDS011;53113;45.602;11.904;2022-12-18T11:11:51;11.70;;;7.70;;
66089;SDS011;53113;45.602;11.904;2022-12-18T11:16:56;11.00;;;6.90;;
66089;SDS011;53113;45.602;11.904;2022-12-18T11:21:59;13.30;;;8.20;;
66089;SDS011;53113;45.602;11.904;2022-12-18T11:24:33;11.70;;;7.70;;
66089;SDS011;53113;45.602;11.904;2022-12-18T11:27:04;12.70;;;8.10;;
66089;SDS011;53113;45.602;11.904;2022-12-18T11:29:37;13.80;;;8.80;;
66089;SDS011;53113;45.602;11.904;2022-12-18T11:37:59;12.40;;;8.00;;
66089;SDS011;53113;45.602;11.904;2022-12-18T11:40:35;13.00;;;8.00;;
66089;SDS011;53113;45.602;11.904;2022-12-18T11:49:34;13.10;;;8.60;;
66089;SDS011;53113;45.602;11.904;2022-12-18T11:52:04;11.30;;;7.50;;
66089;SDS011;53113;45.602;11.904;2022-12-18T11:54:40;11.60;;;7.70;;
66089;SDS011;53113;45.602;11.904;2022-12-18T12:05:26;12.00;;;8.70;;
66089;SDS011;53113;45.602;11.904;2022-12-18T12:23:50;11.60;;;7.80;;
66089;SDS011;53113;45.602;11.904;2022-12-18T12:34:25;11.20;;;7.90;;
66089;SDS011;53113;45.602;11.904;2022-12-18T12:39:32;11.40;;;7.30;;
66089;SDS011;53113;45.602;11.904;2022-12-18T12:42:04;11.00;;;7.40;;
66089;SDS011;53113;45.602;11.904;2022-12-18T12:44:55;12.20;;;7.90;;
66089;SDS011;53113;45.602;11.904;2022-12-18T12:47:27;12.20;;;8.00;;
66089;SDS011;53113;45.602;11.904;2022-12-18T12:50:05;12.30;;;7.80;;
66089;SDS011;53113;45.602;11.904;2022-12-18T12:52:50;11.50;;;7.70;;
66089;SDS011;53113;45.602;11.904;2022-12-18T12:55:28;12.00;;;8.20;;
66089;SDS011;53113;45.602;11.904;2022-12-18T12:58:00;10.30;;;7.00;;
66089;SDS011;53113;45.602;11.904;2022-12-18T13:00:30;12.60;;;8.20;;
66089;SDS011;53113;45.602;11.904;2022-12-18T13:06:53;11.60;;;7.40;;
66089;SDS011;53113;45.602;11.904;2022-12-18T13:14:31;11.00;;;7.50;;
66089;SDS011;53113;45.602;11.904;2022-12-18T13:20:05;11.50;;;8.20;;
66089;SDS011;53113;45.602;11.904;2022-12-18T13:22:35;10.40;;;7.60;;
66089;SDS011;53113;45.602;11.904;2022-12-18T13:33:42;12.00;;;8.20;;
66089;SDS011;53113;45.602;11.904;2022-12-18T13:36:01;12.00;;;8.20;;
66089;SDS011;53113;45.602;11.904;2022-12-18T13:38:35;11.70;;;8.60;;
66089;SDS011;53113;45.602;11.904;2022-12-18T13:43:52;11.10;;;8.10;;
66089;SDS011;53113;45.602;11.904;2022-12-18T13:46:21;12.00;;;8.50;;
66089;SDS011;53113;45.602;11.904;2022-12-18T13:49:15;12.10;;;9.10;;
66089;SDS011;53113;45.602;11.904;2022-12-18T13:52:15;12.70;;;8.50;;
66089;SDS011;53113;45.602;11.904;2022-12-18T13:54:53;11.90;;;9.00;;
66089;SDS011;53113;45.602;11.904;2022-12-18T13:57:35;12.70;;;9.10;;
66089;SDS011;53113;45.602;11.904;2022-12-18T14:02:48;11.90;;;8.10;;
66089;SDS011;53113;45.602;11.904;2022-12-18T14:05:22;11.50;;;8.30;;
66089;SDS011;53113;45.602;11.904;2022-12-18T14:07:53;12.10;;;8.70;;
66089;SDS011;53113;45.602;11.904;2022-12-18T14:10:20;11.40;;;8.40;;
66089;SDS011;53113;45.602;11.904;2022-12-18T14:12:48;11.70;;;8.30;;
66089;SDS011;53113;45.602;11.904;2022-12-18T14:17:57;11.80;;;8.60;;
66089;SDS011;53113;45.602;11.904;2022-12-18T14:20:23;11.70;;;8.30;;
66089;SDS011;53113;45.602;11.904;2022-12-18T14:22:50;12.20;;;8.40;;
66089;SDS011;53113;45.602;11.904;2022-12-18T14:25:18;12.20;;;8.40;;
66089;SDS011;53113;45.602;11.904;2022-12-18T14:27:53;11.00;;;8.00;;
66089;SDS011;53113;45.602;11.904;2022-12-18T14:30:43;12.30;;;8.20;;
66089;SDS011;53113;45.602;11.904;2022-12-18T14:33:14;11.80;;;8.50;;
66089;SDS011;53113;45.602;11.904;2022-12-18T14:38:28;11.90;;;8.50;;
66089;SDS011;53113;45.602;11.904;2022-12-18T14:41:06;13.40;;;9.00;;
66089;SDS011;53113;45.602;11.904;2022-12-18T14:43:38;13.60;;;9.30;;
66089;SDS011;53113;45.602;11.904;2022-12-18T14:46:19;12.60;;;9.10;;
66089;SDS011;53113;45.602;11.904;2022-12-18T14:48:53;13.00;;;8.60;;
66089;SDS011;53113;45.602;11.904;2022-12-18T14:51:23;12.90;;;8.80;;
66089;SDS011;53113;45.602;11.904;2022-12-18T14:54:05;14.20;;;8.90;;
66089;SDS011;53113;45.602;11.904;2022-12-18T14:56:44;13.60;;;9.30;;
66089;SDS011;53113;45.602;11.904;2022-12-18T14:59:24;12.70;;;9.60;;
66089;SDS011;53113;45.602;11.904;2022-12-18T15:01:58;12.50;;;9.20;;
66089;SDS011;53113;45.602;11.904;2022-12-18T15:04:44;13.60;;;9.10;;
66089;SDS011;53113;45.602;11.904;2022-12-18T15:07:14;13.40;;;8.90;;
66089;SDS011;53113;45.602;11.904;2022-12-18T15:10:03;12.70;;;8.70;;
66089;SDS011;53113;45.602;11.904;2022-12-18T15:12:44;12.70;;;8.30;;
66089;SDS011;53113;45.602;11.904;2022-12-18T15:18:04;13.20;;;9.10;;
66089;SDS011;53113;45.602;11.904;2022-12-18T15:20:54;13.80;;;9.00;;
66089;SDS011;53113;45.602;11.904;2022-12-18T15:23:27;14.40;;;9.60;;
66089;SDS011;53113;45.602;11.904;2022-12-18T15:26:07;16.00;;;9.80;;
66089;SDS011;53113;45.602;11.904;2022-12-18T15:36:21;19.10;;;12.60;;
66089;SDS011;53113;45.602;11.904;2022-12-18T15:38:49;17.60;;;12.20;;
66089;SDS011;53113;45.602;11.904;2022-12-18T15:41:17;16.90;;;11.30;;
66089;SDS011;53113;45.602;11.904;2022-12-18T15:43:44;17.70;;;11.70;;
66089;SDS011;53113;45.602;11.904;2022-12-18T15:46:13;18.50;;;11.70;;
66089;SDS011;53113;45.602;11.904;2022-12-18T15:48:47;16.70;;;11.20;;
66089;SDS011;53113;45.602;11.904;2022-12-18T15:51:16;20.20;;;10.90;;
66089;SDS011;53113;45.602;11.904;2022-12-18T15:53:45;17.30;;;11.50;;
66089;SDS011;53113;45.602;11.904;2022-12-18T15:56:13;16.30;;;11.30;;
66089;SDS011;53113;45.602;11.904;2022-12-18T15:58:59;16.80;;;11.30;;
66089;SDS011;53113;45.602;11.904;2022-12-18T16:01:27;17.10;;;11.30;;
66089;SDS011;53113;45.602;11.904;2022-12-18T16:03:54;18.30;;;10.90;;
66089;SDS011;53113;45.602;11.904;2022-12-18T16:06:21;18.20;;;11.20;;
66089;SDS011;53113;45.602;11.904;2022-12-18T16:08:47;19.80;;;11.20;;
66089;SDS011;53113;45.602;11.904;2022-12-18T16:11:19;17.10;;;10.90;;
66089;SDS011;53113;45.602;11.904;2022-12-18T16:14:12;16.70;;;11.10;;
66089;SDS011;53113;45.602;11.904;2022-12-18T16:16:46;23.70;;;14.80;;
66089;SDS011;53113;45.602;11.904;2022-12-18T16:19:13;20.90;;;14.10;;
66089;SDS011;53113;45.602;11.904;2022-12-18T16:21:39;23.70;;;14.70;;
66089;SDS011;53113;45.602;11.904;2022-12-18T16:24:05;26.20;;;15.90;;
66089;SDS011;53113;45.602;11.904;2022-12-18T16:26:38;22.40;;;12.00;;
66089;SDS011;53113;45.602;11.904;2022-12-18T16:29:04;20.10;;;13.00;;
66089;SDS011;53113;45.602;11.904;2022-12-18T16:31:29;21.50;;;12.10;;
66089;SDS011;53113;45.602;11.904;2022-12-18T16:36:48;19.30;;;11.70;;
66089;SDS011;53113;45.602;11.904;2022-12-18T16:39:14;19.70;;;12.40;;
66089;SDS011;53113;45.602;11.904;2022-12-18T16:41:43;20.80;;;12.00;;
66089;SDS011;53113;45.602;11.904;2022-12-18T16:44:08;18.90;;;11.40;;
66089;SDS011;53113;45.602;11.904;2022-12-18T16:46:35;19.90;;;12.20;;
66089;SDS011;53113;45.602;11.904;2022-12-18T16:49:01;19.70;;;11.70;;
66089;SDS011;53113;45.602;11.904;2022-12-18T16:51:28;24.80;;;12.70;;
66089;SDS011;53113;45.602;11.904;2022-12-18T16:53:54;22.50;;;12.00;;
66089;SDS011;53113;45.602;11.904;2022-12-18T16:56:20;21.30;;;11.50;;
66089;SDS011;53113;45.602;11.904;2022-12-18T16:58:53;18.90;;;11.80;;
66089;SDS011;53113;45.602;11.904;2022-12-18T17:01:21;17.80;;;11.20;;
66089;SDS011;53113;45.602;11.904;2022-12-18T17:03:55;17.40;;;10.60;;
66089;SDS011;53113;45.602;11.904;2022-12-18T17:06:23;16.50;;;11.00;;
66089;SDS011;53113;45.602;11.904;2022-12-18T17:11:26;22.20;;;13.20;;
66089;SDS011;53113;45.602;11.904;2022-12-18T17:13:53;20.30;;;13.70;;